[x] [x]
.:Aeroklub Partizánske:. |  .:Fotogaléria:. |  .:Videogaléria:. |  .:Foto týždňa:. |  .:Kniha návštev:. |  .:Linky:. |  .:Moje konto:.
 MENU [x]

 METEO [x]

 FotoGaléria [x]

 Slnko [x]
LZPT Partizánske
48°37'N 18°20'E
Východ: 6:00 AM
Západ: 7:34 PM
LZIB Bratislava
48°10'N 17°12'E
Východ: 6:05 AM
Západ: 7:38 PM
LZKZ Košice
48°39'N 21°14'E
Východ: 5:49 AM
Západ: 7:22 PM

 Jazyky [x]
Vyberte jazyk rozhrania:

Slovak English German Polish


  SPRÁVY METAR - ČESKÁ REPUBLIKA
Brno-TuřanyLKTB 310200Z 09005KT CAVOK 19/14 Q1017 NOSIGdekóduj
ČáslavLKCV 310200Z 13002KT CAVOK 21/16 Q1016 NOSIG RMK BLU BLUdekóduj
HolešovLKHO 010800Z VRB03KT CAVOK 23/17 Q1019dekóduj
Hradec Královedekóduj
Karlovy VaryLKKV 310200Z 10002KT CAVOK 17/15 Q1018dekóduj
KunoviceLKKU 290900Z 01008KT 350V150 CAVOK 26/18 Q1024dekóduj
LiberecLKLB 020602Z 16003KT 9999 FEW016 BKN043 M01/M02 Q1016dekóduj
Mariánsky Láznědekóduj
Náměšť nad OslavouLKNA 310200Z 06003KT CAVOK 20/14 Q1017 RMK BLUdekóduj
Ostrava-MošnovLKMT 310200Z VRB02KT CAVOK 16/14 Q1018 NOSIGdekóduj
PardubiceLKPD 310200Z 00000KT CAVOK 19/16 Q1016 RMK BLUdekóduj
Praha-KbelyLKKB 310200Z 02001KT CAVOK 20/16 Q1016dekóduj
Praha-RuzyněLKPR 310200Z 33002KT CAVOK 20/15 Q1016 NOSIGdekóduj
PřerovLKPO 010000Z 05005KT CAVOK 04/01 Q1013dekóduj
 FreeFly INFO [x]
COROWA 2009


COROWA 2009


COROWA 2009



 LZPT webcam [x]

 Foto týždňa [x]

 KBO SNA [x]

 Login [x]
Užívateľské meno

Heslo


Ešte nemáš konto? Môžeš si ho vytvoriť. Registrovaný užívateľ má množstvo výhod, napr. posielanie okamžitých správ iným užívateľom, posielanie komentárov s vlastným menom, možnosť pridávať fotografie do galérie...

 Kto je online [x]
Momentálne je online 29 hostí a 0 členov.

Ste anonymný užívateľ. Zaregistrovať sa môžete tu

DETAILY

 Linky [x]

 Počítadlo návštev [x]
Zaznamenali sme
35091069
strán zobrazených od júna 2003

Počet dnešných unikátnych IP adries:
0



www.freefly.sk
Powered by SzMsoft ©2003-2005. Polish translations by Cezary Dąbek. Flying server www.freefly.sk is administrated by maro@freefly.sk - www.artweb.freefly.sk
PHP-Nuke Copyright © 2004 by Francisco Burzi. This is free software, and you may redistribute it under the GPL. PHP-Nuke comes with absolutely no warranty, for details, see the license.